Reynolds, Georgia
Current Conditions -  °F | °C
As of 1:55 AM on Friday 28 Nov 2014 (Local Time) from KPXE Reporting Station
Clear Clear  
Wind Chill: 33°   Ceiling: Unl
Heat Index: 38°   Visibility: 10mi
Dew Point: 28°   Wind: 7mph
Humidity: 67%   Direction: 310°NW
Pressure: 30.38"   Gusts: NA
Location:  32.56°N, 84.1°W
Report Text: KPXE 280655Z AUTO 31006KT 10SM CLR 04/M02 A3038 RMK AO2 T00351022
Loading
Personal Weather Stations






























Interactive Weather Map New forecast layout! Learn more

10-Day Weather Forecast

Advertisements
Track Severe Weather on mobile